Time;durP1;ratioP1;P1;durP2;ratioP2;P2;SDS_P1;SDS_P2;PMS_P1;PMS_P2;Temp;Humidity;BMP_temperature;BMP_pressure;BME280_temperature;BME280_humidity;BME280_pressure;Samples;Min_cycle;Max_cycle;Signal;HPM_P1;HPM_P2
2022/07/22 00:02:20;;;;;;;11.00;6.63;;;;;;;;;;5282908;28;20032;-86
2022/07/22 00:04:51;;;;;;;11.05;6.38;;;;;;;;;;5272881;28;20497;-86
2022/07/22 00:07:23;;;;;;;14.57;6.68;;;;;;;;;;5270221;28;20036;-87
2022/07/22 00:09:57;;;;;;;18.40;6.47;;;;;;;;;;5267642;28;20064;-86
2022/07/22 00:12:35;;;;;;;12.45;6.03;;;;;;;;;;5281702;28;20061;-87
2022/07/22 00:15:06;;;;;;;14.40;6.95;;;;;;;;;;5263985;28;20123;-87
2022/07/22 00:17:38;;;;;;;14.80;7.25;;;;;;;;;;5269924;28;20474;-87
2022/07/22 00:20:09;;;;;;;9.40;5.68;;;;;;;;;;5271354;28;20449;-87
2022/07/22 00:22:46;;;;;;;9.10;5.00;;;;;;;;;;5283260;28;20080;-87
2022/07/22 00:25:17;;;;;;;12.10;7.03;;;;;;;;;;5264541;28;20033;-87
2022/07/22 00:27:48;;;;;;;13.65;7.22;;;;;;;;;;5260803;28;20032;-87
2022/07/22 00:30:20;;;;;;;13.30;7.35;;;;;;;;;;5264332;28;20025;-86
2022/07/22 00:32:54;;;;;;;13.75;8.02;;;;;;;;;;5285908;28;20033;-86
2022/07/22 00:35:25;;;;;;;18.50;7.55;;;;;;;;;;5275373;28;20028;-86
2022/07/22 00:37:59;;;;;;;11.90;7.05;;;;;;;;;;5256720;28;20081;-87
2022/07/22 00:40:33;;;;;;;12.20;7.20;;;;;;;;;;5284553;28;20025;-86
2022/07/22 00:43:06;;;;;;;9.90;5.82;;;;;;;;;;5278120;28;20036;-86
2022/07/22 00:45:40;;;;;;;11.90;6.10;;;;;;;;;;5267882;28;20049;-86
2022/07/22 00:48:11;;;;;;;11.68;6.10;;;;;;;;;;5274541;28;20473;-86
2022/07/22 00:50:42;;;;;;;7.57;4.68;;;;;;;;;;5275171;28;20037;-86
2022/07/22 00:53:16;;;;;;;11.02;6.00;;;;;;;;;;5287138;28;20021;-86
2022/07/22 00:55:48;;;;;;;10.90;5.78;;;;;;;;;;5288285;28;20397;-87
2022/07/22 00:58:22;;;;;;;8.18;4.80;;;;;;;;;;5270056;28;20033;-86
2022/07/22 01:00:53;;;;;;;10.85;4.93;;;;;;;;;;5266192;28;20079;-86
2022/07/22 01:03:25;;;;;;;11.13;6.07;;;;;;;;;;5273918;28;20477;-86
2022/07/22 01:05:56;;;;;;;9.52;5.18;;;;;;;;;;5265297;28;20032;-86
2022/07/22 01:08:27;;;;;;;9.30;5.47;;;;;;;;;;5289849;28;20078;-86
2022/07/22 01:11:13;;;;;;;15.98;5.95;;;;;;;;;;5267605;28;20025;-86
2022/07/22 01:13:45;;;;;;;9.02;5.30;;;;;;;;;;5277000;28;20033;-87
2022/07/22 01:16:17;;;;;;;14.18;6.22;;;;;;;;;;5290845;28;20495;-86
2022/07/22 01:18:48;;;;;;;7.47;4.45;;;;;;;;;;5283664;28;20053;-87
2022/07/22 01:21:19;;;;;;;10.07;4.85;;;;;;;;;;5268838;28;20032;-86
2022/07/22 01:23:54;;;;;;;8.43;4.55;;;;;;;;;;5272772;28;20029;-86
2022/07/22 01:26:25;;;;;;;9.65;5.85;;;;;;;;;;5291298;28;21525;-86
2022/07/22 01:28:57;;;;;;;7.65;4.65;;;;;;;;;;5287897;28;20036;-86
2022/07/22 01:31:28;;;;;;;10.05;5.25;;;;;;;;;;5264455;28;20559;-86
2022/07/22 01:33:59;;;;;;;8.65;4.90;;;;;;;;;;5282708;28;20183;-86
2022/07/22 01:36:31;;;;;;;10.20;5.53;;;;;;;;;;5268995;28;20021;-86
2022/07/22 01:39:02;;;;;;;13.18;6.05;;;;;;;;;;5282728;28;20282;-86
2022/07/22 01:41:34;;;;;;;11.15;4.95;;;;;;;;;;5298074;28;20025;-86
2022/07/22 01:44:05;;;;;;;5.82;4.28;;;;;;;;;;5279898;28;20397;-87
2022/07/22 01:46:36;;;;;;;8.40;4.65;;;;;;;;;;5269091;28;20393;-86
2022/07/22 01:49:08;;;;;;;10.45;5.95;;;;;;;;;;5286643;28;20131;-86
2022/07/22 01:51:39;;;;;;;11.40;6.10;;;;;;;;;;5268756;28;20032;-86
2022/07/22 01:54:13;;;;;;;10.50;5.78;;;;;;;;;;5265236;28;20460;-86
2022/07/22 01:56:46;;;;;;;9.63;5.70;;;;;;;;;;5297187;28;20139;-86
2022/07/22 01:59:18;;;;;;;13.75;6.10;;;;;;;;;;5313324;28;20169;-86
2022/07/22 02:01:49;;;;;;;10.43;6.05;;;;;;;;;;5280576;28;20151;-86
2022/07/22 02:04:24;;;;;;;13.48;6.65;;;;;;;;;;5269646;28;20025;-86
2022/07/22 02:06:55;;;;;;;10.70;5.95;;;;;;;;;;5286878;28;20041;-86
2022/07/22 02:09:26;;;;;;;15.43;7.50;;;;;;;;;;5290726;28;20032;-86
2022/07/22 02:12:01;;;;;;;13.55;7.03;;;;;;;;;;5279907;28;20025;-86
2022/07/22 02:14:32;;;;;;;13.70;7.25;;;;;;;;;;5286342;28;20036;-86
2022/07/22 02:17:03;;;;;;;15.38;7.40;;;;;;;;;;5265872;28;20052;-86
2022/07/22 02:19:35;;;;;;;12.00;5.93;;;;;;;;;;5284004;28;20116;-86
2022/07/22 02:22:06;;;;;;;10.37;6.97;;;;;;;;;;5283516;28;20087;-85
2022/07/22 02:24:37;;;;;;;13.35;6.57;;;;;;;;;;5269759;28;20275;-85
2022/07/22 02:27:09;;;;;;;15.25;6.78;;;;;;;;;;5259889;28;20029;-85
2022/07/22 02:29:40;;;;;;;12.98;6.88;;;;;;;;;;5289943;28;20112;-86
2022/07/22 02:32:11;;;;;;;14.45;6.68;;;;;;;;;;5263965;28;20035;-86
2022/07/22 02:34:42;;;;;;;18.37;8.50;;;;;;;;;;5285644;28;20033;-85
2022/07/22 02:37:13;;;;;;;14.63;7.63;;;;;;;;;;5266306;28;20030;-86
2022/07/22 02:39:45;;;;;;;25.20;10.30;;;;;;;;;;5264796;28;20470;-85
2022/07/22 02:42:17;;;;;;;10.27;6.40;;;;;;;;;;5267806;28;20248;-86
2022/07/22 02:44:48;;;;;;;10.43;6.68;;;;;;;;;;5292866;28;20873;-86
2022/07/22 02:47:19;;;;;;;8.50;6.47;;;;;;;;;;5268463;28;20500;-86
2022/07/22 02:49:50;;;;;;;17.17;8.60;;;;;;;;;;5285674;28;20056;-87
2022/07/22 02:52:22;;;;;;;10.40;6.10;;;;;;;;;;5266046;28;20244;-86
2022/07/22 02:54:53;;;;;;;9.63;5.90;;;;;;;;;;5285690;28;20628;-86
2022/07/22 02:57:24;;;;;;;16.67;7.00;;;;;;;;;;5267003;28;20036;-85
2022/07/22 02:59:55;;;;;;;14.70;6.30;;;;;;;;;;5267253;28;20588;-85
2022/07/22 03:02:26;;;;;;;11.43;6.10;;;;;;;;;;5289442;28;20271;-85
2022/07/22 03:04:58;;;;;;;9.40;5.97;;;;;;;;;;5268567;28;20036;-85
2022/07/22 03:07:29;;;;;;;10.77;6.00;;;;;;;;;;5264718;28;20102;-86
2022/07/22 03:10:00;;;;;;;10.90;5.60;;;;;;;;;;5265198;28;20030;-85
2022/07/22 03:12:31;;;;;;;12.70;5.93;;;;;;;;;;5258913;28;20327;-86
2022/07/22 03:15:03;;;;;;;14.43;6.70;;;;;;;;;;5269330;28;20095;-85
2022/07/22 03:17:34;;;;;;;10.63;5.47;;;;;;;;;;5265898;28;20290;-85
2022/07/22 03:20:07;;;;;;;11.68;5.43;;;;;;;;;;5287557;28;20056;-85
2022/07/22 03:22:38;;;;;;;12.57;6.70;;;;;;;;;;5259306;28;20033;-85
2022/07/22 03:25:10;;;;;;;19.73;7.78;;;;;;;;;;5280758;28;20038;-85
2022/07/22 03:27:41;;;;;;;12.25;5.50;;;;;;;;;;5268231;28;20024;-85
2022/07/22 03:30:13;;;;;;;14.80;7.00;;;;;;;;;;5279714;28;20025;-86
2022/07/22 03:32:47;;;;;;;8.25;6.15;;;;;;;;;;5265089;28;20120;-85
2022/07/22 03:35:18;;;;;;;12.50;5.53;;;;;;;;;;5277114;28;20028;-86
2022/07/22 03:37:50;;;;;;;8.55;5.18;;;;;;;;;;5279614;28;20018;-85
2022/07/22 03:40:24;;;;;;;7.57;5.00;;;;;;;;;;5284318;28;20048;-86
2022/07/22 03:42:55;;;;;;;8.95;5.32;;;;;;;;;;5265898;28;20025;-86
2022/07/22 03:45:26;;;;;;;9.10;5.67;;;;;;;;;;5267394;28;20067;-86
2022/07/22 03:47:57;;;;;;;11.37;6.30;;;;;;;;;;5267800;28;20282;-86
2022/07/22 03:50:28;;;;;;;10.18;5.57;;;;;;;;;;5258879;28;20787;-86
2022/07/22 03:53:00;;;;;;;15.40;6.20;;;;;;;;;;5284667;28;20024;-86
2022/07/22 03:55:31;;;;;;;8.02;5.03;;;;;;;;;;5265216;28;20294;-85
2022/07/22 03:58:02;;;;;;;14.75;7.00;;;;;;;;;;5280197;28;20025;-86
2022/07/22 04:00:34;;;;;;;10.37;5.97;;;;;;;;;;5264151;28;20029;-86
2022/07/22 04:03:05;;;;;;;11.18;6.20;;;;;;;;;;5270625;28;20294;-86
2022/07/22 04:05:36;;;;;;;12.07;6.77;;;;;;;;;;5265278;28;20028;-86
2022/07/22 04:08:07;;;;;;;12.43;6.13;;;;;;;;;;5261420;28;20284;-86
2022/07/22 04:10:39;;;;;;;7.85;5.00;;;;;;;;;;5262052;28;20029;-85
2022/07/22 04:13:11;;;;;;;11.93;5.78;;;;;;;;;;5263973;28;20026;-86
2022/07/22 04:15:42;;;;;;;9.90;5.55;;;;;;;;;;5278866;28;20479;-86
2022/07/22 04:18:15;;;;;;;10.20;5.87;;;;;;;;;;5281792;28;20033;-86
2022/07/22 04:20:46;;;;;;;10.25;6.53;;;;;;;;;;5270265;28;20282;-85
2022/07/22 04:23:17;;;;;;;6.93;5.32;;;;;;;;;;5269170;28;20034;-85
2022/07/22 04:25:49;;;;;;;11.60;6.40;;;;;;;;;;5288564;28;20071;-86
2022/07/22 04:28:20;;;;;;;9.18;5.43;;;;;;;;;;5274355;28;20344;-86
2022/07/22 04:30:52;;;;;;;17.08;6.75;;;;;;;;;;5287666;28;20027;-86
2022/07/22 04:33:23;;;;;;;17.00;7.10;;;;;;;;;;5276752;28;20060;-86
2022/07/22 04:35:54;;;;;;;12.73;6.97;;;;;;;;;;5292461;28;20984;-86
2022/07/22 04:38:25;;;;;;;10.90;5.83;;;;;;;;;;5268464;28;20040;-86
2022/07/22 04:40:57;;;;;;;11.75;6.00;;;;;;;;;;5284454;28;20267;-85
2022/07/22 04:43:31;;;;;;;14.13;6.72;;;;;;;;;;5290233;28;20032;-86
2022/07/22 04:46:03;;;;;;;15.75;8.35;;;;;;;;;;5281070;28;20484;-85
2022/07/22 04:48:37;;;;;;;17.95;8.23;;;;;;;;;;5267997;28;20489;-86
2022/07/22 04:51:08;;;;;;;12.68;7.70;;;;;;;;;;5281930;28;20036;-86
2022/07/22 04:53:39;;;;;;;17.15;9.13;;;;;;;;;;5258883;28;20052;-85
2022/07/22 04:56:10;;;;;;;15.80;8.70;;;;;;;;;;5268373;28;20028;-85
2022/07/22 04:58:42;;;;;;;13.35;8.43;;;;;;;;;;5264203;28;20268;-86
2022/07/22 05:01:13;;;;;;;13.50;8.47;;;;;;;;;;5264213;28;20145;-86
2022/07/22 05:03:44;;;;;;;14.48;9.57;;;;;;;;;;5280290;28;20287;-85
2022/07/22 05:06:15;;;;;;;19.13;9.93;;;;;;;;;;5261891;28;20021;-86
2022/07/22 05:08:47;;;;;;;14.38;8.18;;;;;;;;;;5280278;28;20271;-86
2022/07/22 05:11:18;;;;;;;14.05;8.40;;;;;;;;;;5262378;28;20549;-86
2022/07/22 05:13:49;;;;;;;17.23;9.13;;;;;;;;;;5286851;28;20033;-86
2022/07/22 05:16:20;;;;;;;10.50;7.72;;;;;;;;;;5289903;28;20039;-86
2022/07/22 05:18:51;;;;;;;11.60;7.07;;;;;;;;;;5272477;28;20080;-86
2022/07/22 05:21:23;;;;;;;15.20;7.63;;;;;;;;;;5271543;28;20118;-86
2022/07/22 05:23:54;;;;;;;15.50;8.27;;;;;;;;;;5285267;28;20444;-86
2022/07/22 05:26:28;;;;;;;16.90;8.30;;;;;;;;;;5270102;28;20028;-86
2022/07/22 05:28:59;;;;;;;15.15;8.60;;;;;;;;;;5289593;28;20283;-87
2022/07/22 05:31:30;;;;;;;17.33;7.13;;;;;;;;;;5290111;28;20071;-88
2022/07/22 05:34:03;;;;;;;18.47;7.57;;;;;;;;;;5264345;28;20493;-86
2022/07/22 05:36:34;;;;;;;14.90;9.43;;;;;;;;;;5270413;28;20033;-86
2022/07/22 05:39:06;;;;;;;16.23;9.40;;;;;;;;;;5281426;28;20056;-87
2022/07/22 05:41:38;;;;;;;14.50;9.45;;;;;;;;;;5277953;28;20025;-87
2022/07/22 05:44:09;;;;;;;13.70;8.90;;;;;;;;;;5269230;28;20048;-86
2022/07/22 05:46:40;;;;;;;14.82;8.95;;;;;;;;;;5276849;28;20020;-86
2022/07/22 05:49:11;;;;;;;14.07;8.20;;;;;;;;;;5276837;28;20036;-87
2022/07/22 05:51:43;;;;;;;17.67;8.67;;;;;;;;;;5263832;28;20021;-86
2022/07/22 05:54:14;;;;;;;13.32;8.38;;;;;;;;;;5257813;28;20282;-86
2022/07/22 05:56:45;;;;;;;12.38;7.10;;;;;;;;;;5263437;28;20132;-87
2022/07/22 05:59:16;;;;;;;14.30;7.10;;;;;;;;;;5263076;28;20103;-86
2022/07/22 06:01:48;;;;;;;12.80;7.27;;;;;;;;;;5260743;28;20128;-86
2022/07/22 06:04:20;;;;;;;17.48;6.85;;;;;;;;;;5278163;28;20044;-87
2022/07/22 06:06:52;;;;;;;12.02;6.05;;;;;;;;;;5267343;28;20023;-87
2022/07/22 06:09:23;;;;;;;8.48;5.80;;;;;;;;;;5268117;28;20808;-87
2022/07/22 06:11:54;;;;;;;12.82;6.10;;;;;;;;;;5257990;28;20425;-87
2022/07/22 06:14:25;;;;;;;12.83;6.50;;;;;;;;;;5281580;28;20040;-87
2022/07/22 06:16:57;;;;;;;10.17;5.73;;;;;;;;;;5285890;28;20275;-87
2022/07/22 06:19:32;;;;;;;9.45;5.05;;;;;;;;;;5267915;28;20046;-87
2022/07/22 06:22:03;;;;;;;10.35;5.03;;;;;;;;;;5267380;28;20078;-87
2022/07/22 06:24:34;;;;;;;12.63;6.10;;;;;;;;;;5287954;28;20036;-87
2022/07/22 06:27:05;;;;;;;7.43;3.67;;;;;;;;;;5273971;28;20394;-87
2022/07/22 06:29:37;;;;;;;14.45;5.43;;;;;;;;;;5273648;28;20038;-87
2022/07/22 06:32:08;;;;;;;9.35;4.93;;;;;;;;;;5290085;28;20063;-87
2022/07/22 06:34:39;;;;;;;7.27;3.17;;;;;;;;;;5289024;28;20091;-87
2022/07/22 06:37:10;;;;;;;8.70;4.20;;;;;;;;;;5270582;28;20134;-87
2022/07/22 06:39:42;;;;;;;10.30;4.17;;;;;;;;;;5274013;28;20329;-87
2022/07/22 06:42:13;;;;;;;11.15;3.58;;;;;;;;;;5274117;28;20271;-85
2022/07/22 06:44:45;;;;;;;8.45;3.60;;;;;;;;;;5276579;28;20115;-86
2022/07/22 06:47:16;;;;;;;8.63;3.30;;;;;;;;;;5280074;28;20023;-87
2022/07/22 06:49:47;;;;;;;9.43;3.93;;;;;;;;;;5277070;28;20166;-87
2022/07/22 06:52:18;;;;;;;8.67;3.60;;;;;;;;;;5267380;28;20271;-86
2022/07/22 06:54:50;;;;;;;15.60;6.40;;;;;;;;;;5270385;28;20060;-87
2022/07/22 06:57:21;;;;;;;6.07;3.07;;;;;;;;;;5278337;28;20276;-85
2022/07/22 06:59:52;;;;;;;4.20;1.92;;;;;;;;;;5275531;28;20440;-88
2022/07/22 07:02:24;;;;;;;4.32;2.20;;;;;;;;;;5263910;28;20051;-85
2022/07/22 07:04:55;;;;;;;9.00;3.50;;;;;;;;;;5276200;28;20067;-85
2022/07/22 07:07:26;;;;;;;2.97;1.70;;;;;;;;;;5290151;28;20043;-87
2022/07/22 07:09:57;;;;;;;4.90;2.17;;;;;;;;;;5274738;28;20292;-87
2022/07/22 07:12:28;;;;;;;5.03;2.13;;;;;;;;;;5268473;28;20670;-87
2022/07/22 07:15:00;;;;;;;4.82;2.15;;;;;;;;;;5291232;28;20037;-87
2022/07/22 07:17:31;;;;;;;4.33;2.10;;;;;;;;;;5269035;28;20075;-86
2022/07/22 07:20:02;;;;;;;5.50;2.10;;;;;;;;;;5272447;28;20082;-87
2022/07/22 07:22:34;;;;;;;5.75;2.13;;;;;;;;;;5275527;28;20033;-87
2022/07/22 07:25:06;;;;;;;5.78;2.25;;;;;;;;;;5272645;28;20436;-87
2022/07/22 07:27:37;;;;;;;4.10;2.47;;;;;;;;;;5288035;28;20028;-87
2022/07/22 07:30:09;;;;;;;8.57;2.17;;;;;;;;;;5291362;28;20086;-85
2022/07/22 07:32:40;;;;;;;3.33;1.45;;;;;;;;;;5295018;28;20345;-86
2022/07/22 07:35:14;;;;;;;3.23;1.50;;;;;;;;;;5290597;28;20028;-86
2022/07/22 07:37:45;;;;;;;4.10;2.00;;;;;;;;;;5291737;28;20020;-86
2022/07/22 07:40:16;;;;;;;3.88;1.77;;;;;;;;;;5268746;28;20510;-86
2022/07/22 07:42:48;;;;;;;4.13;1.50;;;;;;;;;;5273983;28;20474;-86
2022/07/22 07:45:19;;;;;;;6.67;1.70;;;;;;;;;;5278876;28;20040;-86
2022/07/22 07:47:50;;;;;;;3.38;1.60;;;;;;;;;;5269242;28;20036;-85
2022/07/22 07:50:22;;;;;;;5.23;1.70;;;;;;;;;;5280477;28;20024;-86
2022/07/22 07:52:53;;;;;;;5.70;2.03;;;;;;;;;;5264873;28;20267;-86
2022/07/22 07:55:24;;;;;;;3.08;1.65;;;;;;;;;;5269836;28;20036;-86
2022/07/22 07:57:59;;;;;;;5.57;2.30;;;;;;;;;;5272843;28;20064;-85
2022/07/22 08:00:32;;;;;;;4.05;1.55;;;;;;;;;;5276397;28;20066;-86
2022/07/22 08:03:03;;;;;;;4.18;1.52;;;;;;;;;;5274592;28;20028;-84
2022/07/22 08:05:34;;;;;;;7.40;2.42;;;;;;;;;;5261066;28;20037;-83
2022/07/22 08:08:06;;;;;;;5.40;1.80;;;;;;;;;;5248870;28;20026;-84
2022/07/22 08:10:37;;;;;;;3.58;1.60;;;;;;;;;;5261201;28;20048;-84
2022/07/22 08:13:09;;;;;;;1.97;1.30;;;;;;;;;;5278356;28;20029;-84
2022/07/22 08:15:40;;;;;;;2.97;1.00;;;;;;;;;;5269012;28;20714;-84
2022/07/22 08:18:11;;;;;;;3.13;1.10;;;;;;;;;;5291003;28;20037;-84
2022/07/22 08:20:43;;;;;;;2.45;1.17;;;;;;;;;;5288892;28;20021;-84
2022/07/22 08:23:17;;;;;;;2.70;1.10;;;;;;;;;;5277572;28;20033;-84
2022/07/22 08:25:48;;;;;;;2.15;0.98;;;;;;;;;;5276531;28;20307;-85
2022/07/22 08:28:20;;;;;;;2.63;1.00;;;;;;;;;;5278733;28;20063;-85
2022/07/22 08:30:51;;;;;;;8.05;1.05;;;;;;;;;;5277557;28;20061;-85
2022/07/22 08:33:23;;;;;;;5.07;0.80;;;;;;;;;;5279797;28;20045;-84
2022/07/22 08:35:54;;;;;;;3.20;0.83;;;;;;;;;;5261368;28;20041;-84
2022/07/22 08:38:27;;;;;;;3.77;1.20;;;;;;;;;;5258020;28;20424;-85
2022/07/22 08:41:00;;;;;;;3.70;1.52;;;;;;;;;;5278867;28;20029;-85
2022/07/22 08:43:34;;;;;;;4.65;1.40;;;;;;;;;;5274511;28;20112;-84
2022/07/22 08:46:05;;;;;;;2.47;1.52;;;;;;;;;;5277090;28;20408;-84
2022/07/22 08:48:37;;;;;;;5.73;1.50;;;;;;;;;;5278243;28;20028;-84
2022/07/22 08:51:08;;;;;;;2.90;1.70;;;;;;;;;;5281063;28;20283;-84
2022/07/22 08:53:39;;;;;;;3.28;1.40;;;;;;;;;;5281497;28;20417;-84
2022/07/22 08:56:12;;;;;;;5.57;1.60;;;;;;;;;;5264168;28;20481;-84
2022/07/22 08:58:43;;;;;;;3.80;1.60;;;;;;;;;;5283253;28;20061;-85
2022/07/22 09:01:16;;;;;;;5.30;1.63;;;;;;;;;;5280868;28;20171;-84
2022/07/22 09:03:51;;;;;;;3.20;1.55;;;;;;;;;;5279720;28;20129;-84
2022/07/22 09:06:23;;;;;;;;;;;;;;;;;;5262899;28;20150;-84
2022/07/22 09:08:55;;;;;;;3.55;1.52;;;;;;;;;;5268208;28;19920;-84
2022/07/22 09:11:30;;;;;;;4.00;2.00;;;;;;;;;;5271771;28;20068;-84
2022/07/22 09:14:01;;;;;;;3.50;1.30;;;;;;;;;;5260058;28;20032;-84
2022/07/22 09:16:44;;;;;;;3.47;1.50;;;;;;;;;;5281094;28;20413;-84
2022/07/22 09:19:15;;;;;;;4.82;1.70;;;;;;;;;;5280159;28;20048;-84
2022/07/22 09:21:49;;;;;;;3.63;1.50;;;;;;;;;;5280582;28;20037;-85
2022/07/22 09:24:27;;;;;;;4.43;1.98;;;;;;;;;;5279117;28;20044;-84
2022/07/22 09:26:58;;;;;;;3.38;1.50;;;;;;;;;;5266919;28;20040;-84
2022/07/22 09:29:30;;;;;;;5.15;1.60;;;;;;;;;;5263296;28;20029;-85
2022/07/22 09:32:01;;;;;;;2.43;1.50;;;;;;;;;;5280443;28;20025;-85
2022/07/22 09:34:34;;;;;;;3.97;1.83;;;;;;;;;;5261825;28;20493;-85
2022/07/22 09:37:05;;;;;;;4.85;2.00;;;;;;;;;;5261683;28;20264;-85
2022/07/22 09:39:36;;;;;;;6.17;1.83;;;;;;;;;;5279324;28;20043;-84
2022/07/22 09:42:07;;;;;;;5.20;1.93;;;;;;;;;;5282152;28;20128;-85
2022/07/22 09:44:39;;;;;;;4.00;1.73;;;;;;;;;;5276864;28;20049;-84
2022/07/22 09:47:29;;;;;;;4.05;1.65;;;;;;;;;;5251821;28;20036;-84
2022/07/22 09:50:00;;;;;;;4.22;1.58;;;;;;;;;;5279623;28;20033;-85
2022/07/22 09:52:31;;;;;;;5.63;1.52;;;;;;;;;;5262942;28;20025;-85
2022/07/22 09:55:03;;;;;;;4.20;1.67;;;;;;;;;;5280492;28;20069;-85
2022/07/22 09:57:35;;;;;;;5.15;1.40;;;;;;;;;;5287417;28;20029;-85
2022/07/22 10:00:08;;;;;;;3.57;1.47;;;;;;;;;;5306100;28;20511;-85
2022/07/22 10:02:44;;;;;;;3.80;1.48;;;;;;;;;;5280566;28;20280;-85
2022/07/22 10:05:16;;;;;;;3.70;1.42;;;;;;;;;;5283670;28;20508;-85
2022/07/22 10:07:48;;;;;;;4.53;1.40;;;;;;;;;;5284197;28;20109;-84
2022/07/22 10:10:21;;;;;;;3.88;1.70;;;;;;;;;;5288908;28;20396;-84
2022/07/22 10:12:53;;;;;;;6.00;2.08;;;;;;;;;;5287983;28;20024;-85
2022/07/22 10:15:26;;;;;;;2.10;1.60;;;;;;;;;;5294941;28;20109;-84
2022/07/22 10:17:58;;;;;;;3.45;1.73;;;;;;;;;;5297258;28;20025;-84
2022/07/22 10:20:30;;;;;;;3.60;1.90;;;;;;;;;;5285138;28;20517;-84
2022/07/22 10:23:08;;;;;;;3.65;2.05;;;;;;;;;;5259024;28;20121;-84
2022/07/22 10:25:48;;;;;;;5.22;2.15;;;;;;;;;;5285626;28;20037;-84
2022/07/22 10:28:20;;;;;;;4.70;2.47;;;;;;;;;;5284018;28;20017;-84
2022/07/22 10:30:52;;;;;;;3.75;1.92;;;;;;;;;;5282924;28;20025;-84
2022/07/22 10:33:28;;;;;;;5.50;2.00;;;;;;;;;;5284223;28;20025;-85
2022/07/22 10:36:00;;;;;;;4.25;2.20;;;;;;;;;;5284200;28;20036;-85
2022/07/22 10:38:32;;;;;;;6.00;2.30;;;;;;;;;;5284308;28;20454;-85
2022/07/22 10:41:05;;;;;;;3.08;1.70;;;;;;;;;;5284840;28;20428;-85
2022/07/22 10:43:43;;;;;;;3.80;2.05;;;;;;;;;;5265713;28;20044;-84
2022/07/22 10:46:14;;;;;;;4.07;1.95;;;;;;;;;;5283582;28;20116;-84
2022/07/22 10:48:46;;;;;;;4.03;2.00;;;;;;;;;;5284347;28;20113;-84
2022/07/22 10:51:18;;;;;;;3.10;1.80;;;;;;;;;;5283746;28;20036;-84
2022/07/22 10:54:01;;;;;;;4.68;2.05;;;;;;;;;;5265094;28;20032;-84
2022/07/22 10:56:35;;;;;;;3.05;1.85;;;;;;;;;;5284206;28;20014;-84
2022/07/22 10:59:10;;;;;;;4.47;1.80;;;;;;;;;;5261498;28;20037;-83
2022/07/22 11:01:46;;;;;;;4.25;1.98;;;;;;;;;;5274006;28;20326;-83
2022/07/22 11:04:18;;;;;;;3.33;2.13;;;;;;;;;;5267308;28;20041;-83
2022/07/22 11:06:51;;;;;;;4.53;2.17;;;;;;;;;;5277359;28;20112;-83
2022/07/22 11:09:23;;;;;;;5.57;2.20;;;;;;;;;;5262839;28;20067;-83
2022/07/22 11:11:55;;;;;;;5.50;2.45;;;;;;;;;;5263345;28;20037;-84
2022/07/22 11:14:36;;;;;;;5.75;2.97;;;;;;;;;;5262294;28;20025;-84
2022/07/22 11:17:13;;;;;;;4.07;2.65;;;;;;;;;;5283646;28;20029;-83
2022/07/22 11:19:44;;;;;;;5.97;3.58;;;;;;;;;;5281854;28;20099;-83
2022/07/22 11:22:18;;;;;;;3.33;2.70;;;;;;;;;;5284056;28;20017;-83
2022/07/22 11:24:49;;;;;;;6.57;2.90;;;;;;;;;;5270418;28;20359;-85
2022/07/22 11:27:25;;;;;;;3.95;3.00;;;;;;;;;;5277196;28;20096;-84
2022/07/22 11:29:57;;;;;;;6.20;2.90;;;;;;;;;;5261968;28;20470;-84
2022/07/22 11:32:31;;;;;;;4.82;2.85;;;;;;;;;;5263186;28;20021;-84
2022/07/22 11:35:02;;;;;;;8.35;2.88;;;;;;;;;;5244833;28;20386;-85
2022/07/22 11:37:33;;;;;;;5.55;3.22;;;;;;;;;;5274448;28;20024;-84
2022/07/22 11:40:06;;;;;;;8.80;3.50;;;;;;;;;;5274454;28;20355;-85
2022/07/22 11:42:37;;;;;;;6.40;3.05;;;;;;;;;;5262632;28;20032;-85
2022/07/22 11:45:08;;;;;;;4.13;3.42;;;;;;;;;;5293404;28;20396;-84
2022/07/22 11:47:48;;;;;;;4.13;3.67;;;;;;;;;;5266990;28;20470;-85
2022/07/22 11:50:29;;;;;;;7.28;3.85;;;;;;;;;;5264425;28;20079;-86
2022/07/22 11:53:01;;;;;;;5.22;3.65;;;;;;;;;;5271656;28;20108;-84
2022/07/22 11:55:33;;;;;;;6.70;3.70;;;;;;;;;;5274423;28;20029;-85
2022/07/22 11:58:04;;;;;;;7.13;3.83;;;;;;;;;;5265850;28;20503;-84
2022/07/22 12:00:36;;;;;;;4.97;4.23;;;;;;;;;;5279420;28;20025;-85
2022/07/22 12:03:07;;;;;;;6.13;3.60;;;;;;;;;;5262362;28;20279;-85
2022/07/22 12:05:38;;;;;;;5.07;4.05;;;;;;;;;;5273083;28;20112;-85
2022/07/22 12:08:09;;;;;;;5.43;4.25;;;;;;;;;;5282823;28;20355;-84
2022/07/22 12:10:42;;;;;;;7.57;4.80;;;;;;;;;;5264844;28;20041;-85
2022/07/22 12:13:13;;;;;;;6.68;4.25;;;;;;;;;;5270424;28;20036;-85
2022/07/22 12:15:47;;;;;;;6.78;4.90;;;;;;;;;;5251802;28;20025;-85
2022/07/22 12:18:20;;;;;;;6.15;4.18;;;;;;;;;;5253668;28;20016;-85
2022/07/22 12:20:51;;;;;;;4.88;3.97;;;;;;;;;;5283698;28;20052;-85
2022/07/22 12:23:24;;;;;;;6.78;4.80;;;;;;;;;;5261016;28;20489;-85
2022/07/22 12:25:57;;;;;;;6.47;4.28;;;;;;;;;;5279138;28;20116;-85
2022/07/22 12:28:28;;;;;;;5.60;4.55;;;;;;;;;;5282356;28;20520;-85
2022/07/22 12:31:00;;;;;;;6.32;4.55;;;;;;;;;;5288564;28;20033;-85
2022/07/22 12:33:31;;;;;;;15.82;4.35;;;;;;;;;;5275165;28;20478;-85
2022/07/22 12:36:06;;;;;;;6.07;4.53;;;;;;;;;;5296014;28;20176;-86
2022/07/22 12:38:37;;;;;;;;;;;;;;;;;;5289871;28;20267;-85
2022/07/22 12:41:22;;;;;;;7.55;4.30;;;;;;;;;;5284863;28;20019;-85
2022/07/22 12:43:53;;;;;;;6.93;5.03;;;;;;;;;;5278401;28;20033;-85
2022/07/22 12:46:26;;;;;;;5.32;4.82;;;;;;;;;;5289711;28;20035;-85
2022/07/22 12:49:00;;;;;;;5.80;5.00;;;;;;;;;;5271776;28;20037;-85
2022/07/22 12:51:31;;;;;;;6.25;4.80;;;;;;;;;;5257272;28;20363;-85
2022/07/22 12:54:03;;;;;;;6.10;4.87;;;;;;;;;;5262648;28;20028;-85
2022/07/22 12:56:34;;;;;;;5.27;4.07;;;;;;;;;;5269691;28;20402;-85
2022/07/22 12:59:05;;;;;;;4.93;4.23;;;;;;;;;;5263709;28;20032;-85
2022/07/22 13:01:39;;;;;;;5.77;3.80;;;;;;;;;;5266651;28;20886;-85
2022/07/22 13:04:10;;;;;;;6.65;4.95;;;;;;;;;;5255476;28;20037;-85
2022/07/22 13:06:41;;;;;;;6.13;5.23;;;;;;;;;;5265250;28;20082;-85
2022/07/22 13:09:13;;;;;;;6.55;4.60;;;;;;;;;;5265364;28;20025;-85
2022/07/22 13:11:44;;;;;;;6.53;4.70;;;;;;;;;;5265185;28;20028;-84
2022/07/22 13:14:18;;;;;;;7.53;4.82;;;;;;;;;;5260194;28;20029;-85
2022/07/22 13:16:49;;;;;;;7.38;5.00;;;;;;;;;;5267839;28;20025;-85
2022/07/22 13:19:20;;;;;;;7.30;5.10;;;;;;;;;;5279072;28;20501;-85
2022/07/22 13:21:51;;;;;;;5.60;4.90;;;;;;;;;;5269011;28;20279;-85
2022/07/22 13:24:23;;;;;;;7.57;5.00;;;;;;;;;;5267617;28;20083;-85
2022/07/22 13:26:54;;;;;;;5.33;4.83;;;;;;;;;;5286177;28;20040;-85
2022/07/22 13:29:25;;;;;;;8.97;4.77;;;;;;;;;;5266572;28;20052;-85
2022/07/22 13:31:56;;;;;;;5.63;5.03;;;;;;;;;;5247104;28;20037;-85
2022/07/22 13:34:27;;;;;;;5.80;5.13;;;;;;;;;;5265010;28;20052;-85
2022/07/22 13:37:00;;;;;;;5.83;5.30;;;;;;;;;;5251970;28;20505;-85
2022/07/22 13:39:34;;;;;;;7.68;5.80;;;;;;;;;;5263845;28;20296;-85
2022/07/22 13:42:05;;;;;;;5.70;5.20;;;;;;;;;;5286571;28;20453;-84
2022/07/22 13:44:36;;;;;;;5.27;4.30;;;;;;;;;;5280573;28;20128;-85
2022/07/22 13:47:07;;;;;;;5.10;4.50;;;;;;;;;;5272039;28;20040;-85
2022/07/22 13:49:39;;;;;;;6.13;3.73;;;;;;;;;;5285110;28;20021;-85
2022/07/22 13:52:10;;;;;;;6.20;4.57;;;;;;;;;;5267067;28;20275;-85
2022/07/22 13:54:41;;;;;;;6.50;4.67;;;;;;;;;;5252763;28;20540;-85
2022/07/22 13:57:12;;;;;;;5.30;3.63;;;;;;;;;;5273031;28;20028;-86
2022/07/22 13:59:44;;;;;;;6.22;4.20;;;;;;;;;;5283773;28;20029;-86
2022/07/22 14:02:15;;;;;;;5.97;4.45;;;;;;;;;;5255504;28;20084;-85
2022/07/22 14:04:47;;;;;;;7.05;5.32;;;;;;;;;;5273062;28;20083;-85
2022/07/22 14:07:18;;;;;;;6.90;4.57;;;;;;;;;;5259182;28;20020;-85
2022/07/22 14:09:49;;;;;;;5.97;4.60;;;;;;;;;;5287328;28;20033;-85
2022/07/22 14:12:20;;;;;;;7.40;5.53;;;;;;;;;;5271164;28;20393;-86
2022/07/22 14:14:51;;;;;;;6.60;5.10;;;;;;;;;;5290530;28;20633;-85
2022/07/22 14:17:23;;;;;;;5.77;4.57;;;;;;;;;;5261430;28;20497;-86
2022/07/22 14:19:54;;;;;;;5.67;4.50;;;;;;;;;;5271855;28;20056;-85
2022/07/22 14:22:25;;;;;;;8.32;5.70;;;;;;;;;;5281246;28;20064;-85
2022/07/22 14:24:57;;;;;;;5.72;5.15;;;;;;;;;;5278451;28;20041;-86
2022/07/22 14:27:28;;;;;;;7.13;5.18;;;;;;;;;;5271411;28;20853;-86
2022/07/22 14:29:59;;;;;;;7.53;5.67;;;;;;;;;;5285381;28;20456;-85
2022/07/22 14:32:30;;;;;;;8.00;4.47;;;;;;;;;;5284347;28;20704;-86
2022/07/22 14:35:01;;;;;;;5.80;5.20;;;;;;;;;;5284225;28;20033;-86
2022/07/22 14:37:33;;;;;;;7.70;5.60;;;;;;;;;;5284832;28;20409;-86
2022/07/22 14:40:05;;;;;;;5.95;5.05;;;;;;;;;;5284918;28;20283;-85
2022/07/22 14:42:37;;;;;;;5.60;5.00;;;;;;;;;;5282319;28;20029;-86
2022/07/22 14:45:11;;;;;;;5.30;4.88;;;;;;;;;;5277163;28;20041;-85
2022/07/22 14:47:42;;;;;;;6.80;5.13;;;;;;;;;;5288359;28;20128;-85
2022/07/22 14:50:14;;;;;;;6.63;5.37;;;;;;;;;;5287298;28;20117;-86
2022/07/22 14:52:45;;;;;;;5.80;5.23;;;;;;;;;;5275799;28;20083;-85
2022/07/22 14:55:16;;;;;;;9.23;6.13;;;;;;;;;;5270449;28;20064;-85
2022/07/22 14:57:47;;;;;;;6.27;5.67;;;;;;;;;;5284064;28;20033;-85
2022/07/22 15:00:18;;;;;;;8.27;6.40;;;;;;;;;;5279911;28;20094;-86
2022/07/22 15:02:50;;;;;;;6.88;5.97;;;;;;;;;;5265876;28;20287;-85
2022/07/22 15:05:22;;;;;;;7.03;6.40;;;;;;;;;;5266785;28;20033;-85
2022/07/22 15:07:53;;;;;;;6.93;5.90;;;;;;;;;;5289815;28;20029;-85